Time;durP1;ratioP1;P1;durP2;ratioP2;P2;SDS_P1;SDS_P2;PMS_P1;PMS_P2;Temp;Humidity;BMP_temperature;BMP_pressure;BME280_temperature;BME280_humidity;BME280_pressure;Samples;Min_cycle;Max_cycle;Signal;HPM_P1;HPM_P2
2023/10/06 00:00:50;;;;;;;8.48;3.85;;;;;;;14.33;100.00;101172.31;5570681;32;33767;-65
2023/10/06 00:04:06;;;;;;;9.43;4.07;;;;;;;14.38;100.00;101179.84;5570444;32;33920;-65
2023/10/06 00:07:09;;;;;;;9.15;3.95;;;;;;;14.30;100.00;101183.34;5570322;32;34019;-65
2023/10/06 00:10:20;;;;;;;9.82;3.67;;;;;;;14.26;100.00;101184.72;5570372;32;33873;-64
2023/10/06 00:13:31;;;;;;;;;;;;;;;14.15;100.00;101181.56;5570618;32;33868;-64
2023/10/06 00:16:40;;;;;;;12.43;4.30;;;;;;;14.11;100.00;101162.41;5570308;32;34485;-65
2023/10/06 00:19:44;;;;;;;10.70;4.35;;;;;;;14.03;100.00;101175.78;5570296;32;33712;-65
2023/10/06 00:22:48;;;;;;;10.52;4.10;;;;;;;13.96;100.00;101176.59;5570250;32;33997;-65
2023/10/06 00:25:55;;;;;;;7.18;4.22;;;;;;;13.85;100.00;101172.47;5570582;32;33924;-65
2023/10/06 00:29:00;;;;;;;10.13;4.50;;;;;;;13.76;100.00;101168.16;5570165;32;34609;-65
2023/10/06 00:32:21;;;;;;;16.70;4.07;;;;;;;13.66;100.00;101165.66;5570265;32;33810;-66
2023/10/06 00:35:30;;;;;;;8.07;4.53;;;;;;;13.55;100.00;101171.34;5569548;32;33933;-65
2023/10/06 00:38:36;;;;;;;9.27;4.53;;;;;;;13.44;100.00;101172.53;5556600;32;33846;-65
2023/10/06 00:41:43;;;;;;;11.12;4.47;;;;;;;13.42;100.00;101171.00;5570357;32;34766;-65
2023/10/06 00:44:47;;;;;;;11.55;4.35;;;;;;;13.37;100.00;101171.50;5570170;32;33916;-65
2023/10/06 00:47:53;;;;;;;12.35;4.72;;;;;;;13.35;100.00;101175.34;5586002;31;34151;-65
2023/10/06 00:50:57;;;;;;;11.38;4.50;;;;;;;13.28;100.00;101175.16;5589603;31;33818;-65
2023/10/06 00:54:01;;;;;;;9.10;3.87;;;;;;;13.18;100.00;101174.50;5563164;31;33940;-65
2023/10/06 00:57:08;;;;;;;11.40;4.80;;;;;;;13.22;100.00;101178.50;5575758;31;33934;-65
2023/10/06 01:00:21;;;;;;;11.15;4.55;;;;;;;13.21;100.00;101190.16;5589721;31;35066;-65
2023/10/06 01:03:25;;;;;;;9.55;4.07;;;;;;;13.09;100.00;101178.12;5589310;31;34030;-66
2023/10/06 01:06:33;;;;;;;8.18;4.12;;;;;;;12.85;100.00;101186.91;5589401;31;33899;-66
2023/10/06 01:09:36;;;;;;;8.45;4.12;;;;;;;12.76;100.00;101179.06;5589440;31;33516;-66
2023/10/06 01:12:39;;;;;;;10.00;4.55;;;;;;;12.86;100.00;101179.75;5575618;31;33316;-66
2023/10/06 01:15:56;;;;;;;8.10;4.07;;;;;;;12.92;100.00;101174.62;5589374;31;33831;-65
2023/10/06 01:19:25;;;;;;;10.50;4.30;;;;;;;13.04;100.00;101181.28;5589633;31;34006;-66
2023/10/06 01:22:25;;;;;;;9.05;3.97;;;;;;;13.10;100.00;101173.63;5589096;31;33782;-65
2023/10/06 01:25:34;;;;;;;10.15;4.22;;;;;;;13.24;100.00;101170.34;5589344;31;34052;-65
2023/10/06 01:28:38;;;;;;;14.30;4.35;;;;;;;13.24;100.00;101179.16;5575486;31;33781;-65
2023/10/06 01:31:41;;;;;;;13.57;4.62;;;;;;;13.28;100.00;101177.00;5589452;31;35331;-65
2023/10/06 01:34:45;;;;;;;11.10;4.37;;;;;;;13.27;100.00;101184.16;5589223;31;34488;-65
2023/10/06 01:37:50;;;;;;;7.50;4.10;;;;;;;13.23;100.00;101184.66;5589066;31;33906;-65
2023/10/06 01:40:53;;;;;;;8.80;4.20;;;;;;;13.10;100.00;101185.13;5589376;31;33773;-65
2023/10/06 01:43:57;;;;;;;8.15;4.20;;;;;;;12.94;100.00;101185.09;5589066;31;33829;-65
2023/10/06 01:47:01;;;;;;;9.48;4.37;;;;;;;12.89;100.00;101198.88;5588766;31;33894;-66
2023/10/06 01:50:04;;;;;;;9.98;4.15;;;;;;;12.72;100.00;101199.84;5589230;31;34645;-65
2023/10/06 01:53:11;;;;;;;15.85;4.90;;;;;;;12.59;100.00;101197.62;5589319;31;33865;-66
2023/10/06 01:56:14;;;;;;;12.07;4.00;;;;;;;12.46;100.00;101197.25;5589167;31;34510;-65
2023/10/06 01:59:17;;;;;;;10.10;4.12;;;;;;;12.39;100.00;101198.06;5575140;31;34524;-65
2023/10/06 02:02:24;;;;;;;9.18;4.03;;;;;;;12.60;100.00;101199.31;5588771;31;34565;-65
2023/10/06 02:05:30;;;;;;;12.00;4.05;;;;;;;12.87;100.00;101190.25;5588773;31;33962;-65
2023/10/06 02:08:32;;;;;;;12.82;4.50;;;;;;;12.87;100.00;101197.41;5588736;31;33964;-65
2023/10/06 02:11:35;;;;;;;11.20;4.18;;;;;;;12.90;100.00;101205.06;5588744;31;34562;-65
2023/10/06 02:14:38;;;;;;;7.62;3.80;;;;;;;13.01;100.00;101210.09;5587805;31;33784;-65
2023/10/06 02:17:41;;;;;;;11.30;4.68;;;;;;;13.03;100.00;101205.41;5588848;31;34503;-65
2023/10/06 02:20:46;;;;;;;11.95;4.60;;;;;;;12.99;100.00;101210.25;5588399;31;34794;-65
2023/10/06 02:23:51;;;;;;;8.57;4.03;;;;;;;12.91;100.00;101212.87;5588408;31;33977;-65
2023/10/06 02:27:02;;;;;;;9.98;4.45;;;;;;;12.92;100.00;101206.56;5588400;31;33944;-65
2023/10/06 02:30:10;;;;;;;12.30;4.80;;;;;;;12.81;100.00;101214.03;5588362;31;35546;-65
2023/10/06 02:33:13;;;;;;;8.65;4.12;;;;;;;12.77;100.00;101210.84;5588218;31;33826;-65
2023/10/06 02:36:24;;;;;;;10.20;4.72;;;;;;;12.60;100.00;101207.28;5588144;31;34542;-65
2023/10/06 02:39:32;;;;;;;7.97;3.87;;;;;;;12.54;100.00;101207.91;5588000;31;34556;-65
2023/10/06 02:42:37;;;;;;;11.32;4.43;;;;;;;12.59;100.00;101210.09;5574402;31;32346;-65
2023/10/06 02:45:40;;;;;;;10.77;4.32;;;;;;;12.55;100.00;101206.09;5574102;31;34153;-65
2023/10/06 02:48:49;;;;;;;8.73;4.25;;;;;;;12.61;100.00;101206.31;5587903;31;34668;-65
2023/10/06 02:51:54;;;;;;;11.05;4.57;;;;;;;12.72;100.00;101205.19;5587758;31;34077;-65
2023/10/06 02:55:06;;;;;;;10.85;4.93;;;;;;;12.69;100.00;101208.16;5587923;31;33757;-65
2023/10/06 02:58:26;;;;;;;10.70;4.80;;;;;;;12.75;100.00;101207.50;5575184;31;34504;-65
2023/10/06 03:01:29;;;;;;;11.30;4.40;;;;;;;12.83;100.00;101204.84;5587751;31;33967;-65
2023/10/06 03:04:36;;;;;;;9.18;4.28;;;;;;;12.90;100.00;101203.22;5587976;31;33857;-65
2023/10/06 03:07:39;;;;;;;10.88;4.80;;;;;;;13.04;100.00;101205.25;5587828;31;33837;-65
2023/10/06 03:10:43;;;;;;;13.13;4.80;;;;;;;13.15;100.00;101203.31;5587768;31;34114;-65
2023/10/06 03:13:48;;;;;;;14.57;4.87;;;;;;;13.14;100.00;101197.16;5587846;31;34544;-65
2023/10/06 03:16:51;;;;;;;14.43;4.85;;;;;;;13.23;100.00;101203.31;5587367;31;33933;-65
2023/10/06 03:20:18;;;;;;;10.68;4.45;;;;;;;13.24;100.00;101215.63;5587733;31;35053;-66
2023/10/06 03:23:38;;;;;;;15.93;5.35;;;;;;;13.21;100.00;101227.47;5587272;31;34012;-66
2023/10/06 03:26:45;;;;;;;11.85;4.53;;;;;;;13.05;100.00;101235.41;5588897;31;34524;-65
2023/10/06 03:29:55;;;;;;;10.13;4.68;;;;;;;12.80;100.00;101237.16;5576349;31;34597;-65
2023/10/06 03:32:58;;;;;;;12.30;4.93;;;;;;;12.53;100.00;101240.87;5590301;31;33843;-65
2023/10/06 03:36:01;;;;;;;13.68;5.10;;;;;;;12.49;100.00;101250.16;5590497;31;35382;-65
2023/10/06 03:39:10;;;;;;;13.05;5.22;;;;;;;12.16;100.00;101253.63;5590644;31;34098;-68
2023/10/06 03:42:18;;;;;;;12.40;4.77;;;;;;;12.00;100.00;101259.69;5590279;31;33783;-66
2023/10/06 03:45:27;;;;;;;12.68;5.00;;;;;;;11.86;100.00;101262.88;5590248;31;34554;-68
2023/10/06 03:48:31;;;;;;;12.37;5.43;;;;;;;11.76;100.00;101257.66;5590044;31;34572;-69
2023/10/06 03:51:44;;;;;;;12.65;5.37;;;;;;;11.69;100.00;101250.44;5590182;31;33867;-65
2023/10/06 03:54:48;;;;;;;13.15;5.03;;;;;;;11.61;100.00;101248.56;5589999;31;34723;-66
2023/10/06 03:57:52;;;;;;;11.18;5.70;;;;;;;11.58;100.00;101259.47;5576259;31;33925;-65
2023/10/06 04:00:55;;;;;;;16.77;5.50;;;;;;;11.50;100.00;101256.75;5590106;31;34961;-65
2023/10/06 04:03:58;;;;;;;10.98;5.00;;;;;;;11.48;100.00;101248.09;5590051;31;33834;-66
2023/10/06 04:07:01;;;;;;;10.18;5.12;;;;;;;11.47;100.00;101249.09;5590225;31;34550;-65
2023/10/06 04:10:07;;;;;;;11.77;5.35;;;;;;;11.53;100.00;101245.81;5589941;31;33840;-66
2023/10/06 04:13:10;;;;;;;17.55;5.20;;;;;;;11.52;100.00;101253.94;5590264;31;33789;-66
2023/10/06 04:16:14;;;;;;;12.88;5.03;;;;;;;11.56;100.00;101256.16;5589776;31;33816;-66
2023/10/06 04:19:17;;;;;;;9.63;4.90;;;;;;;11.52;100.00;101261.94;5589725;31;33837;-65
2023/10/06 04:22:20;;;;;;;12.25;5.35;;;;;;;11.55;100.00;101269.59;5589816;31;34562;-65
2023/10/06 04:25:22;;;;;;;9.38;5.18;;;;;;;11.55;100.00;101264.25;5589718;31;34093;-65
2023/10/06 04:28:28;;;;;;;10.43;5.20;;;;;;;11.64;100.00;101269.50;5589761;31;34495;-66
2023/10/06 04:31:31;;;;;;;15.90;5.40;;;;;;;11.71;100.00;101264.41;5589730;31;34072;-66
2023/10/06 04:34:35;;;;;;;16.67;5.68;;;;;;;11.76;100.00;101267.47;5589485;31;33751;-65
2023/10/06 04:37:38;;;;;;;14.90;5.10;;;;;;;11.75;100.00;101265.81;5589124;31;34501;-65
2023/10/06 04:40:42;;;;;;;13.50;5.05;;;;;;;11.77;100.00;101266.47;5590045;31;34529;-65
2023/10/06 04:43:45;;;;;;;13.27;5.70;;;;;;;11.74;100.00;101274.75;5589608;31;33924;-66
2023/10/06 04:46:50;;;;;;;15.00;5.25;;;;;;;11.69;100.00;101269.03;5589485;31;34572;-66
2023/10/06 04:49:53;;;;;;;13.88;5.12;;;;;;;11.64;100.00;101273.97;5589536;31;33771;-66
2023/10/06 04:52:56;;;;;;;9.55;5.03;;;;;;;11.69;100.00;101275.19;5589704;31;33997;-66
2023/10/06 04:55:59;;;;;;;15.57;5.15;;;;;;;11.66;100.00;101278.16;5589328;31;34989;-66
2023/10/06 04:59:02;;;;;;;13.68;5.07;;;;;;;11.72;100.00;101279.34;5589243;31;33766;-66
2023/10/06 05:02:05;;;;;;;11.93;4.90;;;;;;;11.75;100.00;101292.38;5589832;31;33986;-66
2023/10/06 05:05:33;;;;;;;16.15;5.65;;;;;;;11.73;100.00;101287.22;5589385;31;35395;-66
2023/10/06 05:08:37;;;;;;;11.73;5.47;;;;;;;11.76;100.00;101288.75;5578658;31;34074;-66
2023/10/06 05:11:40;;;;;;;12.25;5.60;;;;;;;11.83;100.00;101295.09;5575622;31;33785;-65
2023/10/06 05:14:45;;;;;;;14.10;5.40;;;;;;;11.80;100.00;101298.09;5589555;31;34611;-65
2023/10/06 05:17:55;;;;;;;16.00;5.20;;;;;;;11.79;100.00;101307.03;5589082;31;34422;-66
2023/10/06 05:20:58;;;;;;;15.55;5.22;;;;;;;11.80;100.00;101314.03;5588989;31;33915;-66
2023/10/06 05:24:01;;;;;;;13.18;5.75;;;;;;;11.81;100.00;101321.03;5589059;31;33845;-66
2023/10/06 05:27:05;;;;;;;18.00;5.70;;;;;;;11.88;100.00;101321.22;5589267;31;34153;-66
2023/10/06 05:30:10;;;;;;;11.80;5.47;;;;;;;11.97;100.00;101328.28;5589452;31;34170;-67
2023/10/06 05:33:16;;;;;;;12.63;4.93;;;;;;;11.97;100.00;101329.13;5588841;31;33801;-66
2023/10/06 05:36:19;;;;;;;12.52;5.18;;;;;;;11.94;100.00;101325.94;5588896;31;34507;-66
2023/10/06 05:39:24;;;;;;;14.77;5.70;;;;;;;11.99;100.00;101334.31;5588899;31;34474;-66
2023/10/06 05:42:26;;;;;;;13.32;5.78;;;;;;;11.99;100.00;101331.63;5575122;31;34637;-66
2023/10/06 05:45:30;;;;;;;16.77;5.40;;;;;;;11.97;100.00;101337.09;5588270;31;34052;-66
2023/10/06 05:48:34;;;;;;;14.07;5.30;;;;;;;11.99;100.00;101337.78;5587726;31;34010;-67
2023/10/06 05:51:38;;;;;;;17.00;5.62;;;;;;;12.07;100.00;101342.34;5588694;31;33869;-68
2023/10/06 05:54:50;;;;;;;16.23;5.28;;;;;;;12.13;100.00;101355.87;5588470;31;34711;-68
2023/10/06 05:58:23;;;;;;;12.95;4.87;;;;;;;12.19;100.00;101357.91;5578141;31;34289;-68
2023/10/06 06:01:32;;;;;;;14.50;5.18;;;;;;;12.30;100.00;101361.28;5575369;31;32586;-67
2023/10/06 06:04:38;;;;;;;14.43;5.45;;;;;;;12.31;100.00;101360.31;5588554;31;34431;-67
2023/10/06 06:07:42;;;;;;;15.15;5.35;;;;;;;12.32;100.00;101369.97;5588305;31;33924;-67
2023/10/06 06:10:46;;;;;;;17.20;5.90;;;;;;;12.35;100.00;101367.81;5588464;31;34546;-68
2023/10/06 06:13:48;;;;;;;12.02;5.20;;;;;;;12.40;100.00;101372.69;5588196;31;33933;-67
2023/10/06 06:17:05;;;;;;;16.25;5.97;;;;;;;12.43;100.00;101369.72;5588066;31;33884;-67
2023/10/06 06:20:09;;;;;;;11.90;5.05;;;;;;;12.51;100.00;101369.78;5587902;31;34526;-68
2023/10/06 06:23:20;;;;;;;13.48;5.45;;;;;;;12.43;100.00;101373.22;5587961;31;34484;-67
2023/10/06 06:26:24;;;;;;;13.73;4.95;;;;;;;12.43;100.00;101367.06;5574320;31;34507;-67
2023/10/06 06:29:29;;;;;;;15.05;5.30;;;;;;;12.48;100.00;101381.59;5574517;31;34077;-68
2023/10/06 06:32:32;;;;;;;15.00;5.65;;;;;;;12.49;100.00;101377.91;5587926;31;33749;-68
2023/10/06 06:35:36;;;;;;;21.35;5.43;;;;;;;12.51;100.00;101383.91;5588025;31;33931;-68
2023/10/06 06:38:39;;;;;;;17.45;5.97;;;;;;;12.57;100.00;101382.47;5587864;31;34167;-67
2023/10/06 06:41:43;;;;;;;25.77;5.28;;;;;;;12.63;100.00;101389.84;5587983;31;33852;-66
2023/10/06 06:44:47;;;;;;;11.98;5.15;;;;;;;12.56;100.00;101394.09;5587484;31;33888;-67
2023/10/06 06:47:52;;;;;;;16.62;5.87;;;;;;;12.61;100.00;101400.63;5587812;31;33832;-67
2023/10/06 06:50:55;;;;;;;23.65;6.12;;;;;;;12.67;100.00;101404.50;5573764;31;33904;-67
2023/10/06 06:53:58;;;;;;;13.18;5.20;;;;;;;12.59;100.00;101410.59;5587636;31;33964;-67
2023/10/06 06:57:01;;;;;;;12.13;4.85;;;;;;;12.57;100.00;101417.91;5587460;31;33817;-67
2023/10/06 07:00:09;;;;;;;19.77;5.20;;;;;;;12.59;100.00;101421.22;5588283;31;34419;-67
2023/10/06 07:03:15;;;;;;;15.82;5.53;;;;;;;12.57;100.00;101425.91;5590388;31;33864;-68
2023/10/06 07:06:20;;;;;;;17.65;5.80;;;;;;;12.58;100.00;101438.22;5589987;31;33811;-68
2023/10/06 07:09:22;;;;;;;17.70;5.50;;;;;;;12.67;100.00;101441.78;5590049;31;33885;-67
2023/10/06 07:12:25;;;;;;;18.80;6.00;;;;;;;12.87;100.00;101440.59;5590121;31;34019;-66
2023/10/06 07:15:29;;;;;;;15.85;5.40;;;;;;;13.02;100.00;101440.84;5590170;31;33923;-67
2023/10/06 07:18:32;;;;;;;15.35;5.10;;;;;;;13.15;100.00;101443.94;5589988;31;33808;-67
2023/10/06 07:21:35;;;;;;;12.70;5.45;;;;;;;13.38;100.00;101450.37;5590337;31;33943;-66
2023/10/06 07:24:39;;;;;;;17.35;5.97;;;;;;;13.47;100.00;101443.22;5563157;31;34529;-66
2023/10/06 07:27:46;;;;;;;12.90;5.15;;;;;;;13.75;100.00;101455.31;5590150;31;33870;-66
2023/10/06 07:30:49;;;;;;;17.10;5.07;;;;;;;14.12;100.00;101454.09;5590218;31;33927;-66
2023/10/06 07:33:52;;;;;;;12.05;4.85;;;;;;;15.27;100.00;101452.00;5590209;31;33960;-67
2023/10/06 07:36:56;;;;;;;13.23;4.43;;;;;;;15.79;100.00;101449.63;5590034;31;33810;-66
2023/10/06 07:40:02;;;;;;;13.02;4.97;;;;;;;17.17;85.23;101459.25;5589822;31;34006;-66
2023/10/06 07:43:07;;;;;;;10.80;4.70;;;;;;;18.34;76.16;101467.13;5589808;31;34143;-67
2023/10/06 07:46:11;;;;;;;10.88;4.40;;;;;;;19.21;68.25;101470.31;5589695;31;34621;-67
2023/10/06 07:49:14;;;;;;;12.73;4.55;;;;;;;20.50;62.14;101476.63;5589944;31;33912;-67
2023/10/06 07:52:17;;;;;;;12.88;4.28;;;;;;;21.10;58.49;101472.88;5576011;31;33860;-66
2023/10/06 07:55:24;;;;;;;9.07;4.28;;;;;;;22.12;52.58;101475.66;5575789;31;34029;-67
2023/10/06 07:58:31;;;;;;;15.55;5.28;;;;;;;22.39;52.36;101474.44;5590444;31;34240;-68
2023/10/06 08:01:35;;;;;;;11.05;4.80;;;;;;;22.13;52.54;101476.47;5589686;31;34121;-67
2023/10/06 08:04:38;;;;;;;15.20;4.65;;;;;;;22.30;52.36;101472.22;5576010;31;33771;-67
2023/10/06 08:07:44;;;;;;;11.32;4.90;;;;;;;22.90;50.92;101479.66;5589390;31;33917;-67
2023/10/06 08:10:49;;;;;;;12.05;4.70;;;;;;;24.76;45.91;101481.69;5589251;31;34892;-68
2023/10/06 08:13:54;;;;;;;14.70;4.70;;;;;;;24.03;46.35;101474.66;5575416;31;33980;-68
2023/10/06 08:16:57;;;;;;;12.30;4.50;;;;;;;23.71;46.71;101484.03;5575917;31;34542;-68
2023/10/06 08:20:03;;;;;;;16.40;4.87;;;;;;;23.23;48.21;101481.22;5589517;31;34892;-68
2023/10/06 08:23:11;;;;;;;14.05;4.45;;;;;;;23.98;45.83;101479.09;5589774;31;33829;-68
2023/10/06 08:26:14;;;;;;;11.15;4.50;;;;;;;25.71;42.53;101488.50;5590031;31;32396;-67
2023/10/06 08:29:18;;;;;;;12.95;4.47;;;;;;;23.25;47.16;101485.34;5589284;31;34513;-68
2023/10/06 08:32:21;;;;;;;12.85;4.90;;;;;;;23.02;47.65;101482.47;5588878;31;34809;-68
2023/10/06 08:35:24;;;;;;;10.07;4.95;;;;;;;20.74;54.59;101498.41;5589267;31;33804;-68
2023/10/06 08:38:27;;;;;;;12.15;4.60;;;;;;;19.00;60.84;101487.34;5589439;31;33825;-67
2023/10/06 08:41:36;;;;;;;13.02;4.72;;;;;;;18.65;63.89;101483.75;5589703;31;33948;-67
2023/10/06 08:44:39;;;;;;;11.10;4.37;;;;;;;17.39;72.25;101487.81;5575761;31;34647;-67
2023/10/06 08:47:42;;;;;;;12.00;4.30;;;;;;;17.32;73.00;101494.97;5589148;31;34710;-67
2023/10/06 08:51:07;;;;;;;13.45;4.43;;;;;;;17.14;76.88;101486.44;5577636;31;33903;-66
2023/10/06 08:54:14;;;;;;;8.68;4.07;;;;;;;16.83;76.79;101483.91;5588991;31;33896;-68
2023/10/06 08:57:17;;;;;;;11.23;4.03;;;;;;;16.66;77.56;101483.19;5562385;31;33824;-67
2023/10/06 09:00:23;;;;;;;12.15;4.43;;;;;;;16.65;76.91;101478.88;5589171;31;33450;-65
2023/10/06 09:03:27;;;;;;;10.45;4.55;;;;;;;16.74;75.20;101476.94;5588788;31;34750;-68
2023/10/06 09:06:31;;;;;;;12.27;4.37;;;;;;;16.69;74.59;101476.66;5589055;31;34875;-66
2023/10/06 09:09:36;;;;;;;13.18;4.53;;;;;;;16.60;77.79;101467.87;5589064;31;33852;-68
2023/10/06 09:12:41;;;;;;;10.75;4.00;;;;;;;16.64;76.71;101476.38;5575429;31;33743;-68
2023/10/06 09:16:08;;;;;;;8.88;4.12;;;;;;;16.69;75.35;101474.81;5588837;31;34029;-67
2023/10/06 09:19:11;;;;;;;11.07;4.10;;;;;;;16.76;70.69;101482.94;5588906;31;33799;-67
2023/10/06 09:22:16;;;;;;;10.02;4.40;;;;;;;16.75;70.58;101482.09;5588492;31;34206;-67
2023/10/06 09:25:21;;;;;;;11.85;4.15;;;;;;;16.69;69.42;101477.50;5589332;31;34458;-69
2023/10/06 09:28:24;;;;;;;9.10;3.92;;;;;;;16.68;68.59;101486.53;5575231;31;33764;-69
2023/10/06 09:31:44;;;;;;;11.93;4.32;;;;;;;16.81;67.94;101481.37;5589051;31;34527;-67
2023/10/06 09:34:53;;;;;;;11.95;4.35;;;;;;;16.85;64.63;101477.31;5589026;31;34132;-65
2023/10/06 09:38:14;;;;;;;10.23;4.43;;;;;;;16.93;64.29;101473.75;5588908;31;33983;-68
2023/10/06 09:41:29;;;;;;;12.32;4.47;;;;;;;16.94;61.67;101470.87;5588737;31;34014;-68
2023/10/06 09:44:34;;;;;;;24.12;4.80;;;;;;;17.12;61.74;101473.22;5588759;31;34534;-67
2023/10/06 09:47:45;;;;;;;10.25;4.40;;;;;;;17.30;60.73;101464.81;5588627;31;34013;-66
2023/10/06 09:50:51;;;;;;;13.75;4.40;;;;;;;17.26;58.64;101456.31;5589509;31;34472;-67
2023/10/06 09:53:54;;;;;;;9.73;4.37;;;;;;;17.24;59.88;101447.59;5589437;31;33959;-66
2023/10/06 09:56:59;;;;;;;7.32;3.75;;;;;;;17.30;59.33;101446.03;5588963;31;34066;-69
2023/10/06 10:00:05;;;;;;;9.93;4.60;;;;;;;17.32;59.67;101452.88;5574866;31;33989;-69
2023/10/06 10:03:15;;;;;;;15.25;4.45;;;;;;;17.46;58.23;101442.31;5588609;31;35273;-69
2023/10/06 10:06:21;;;;;;;9.63;4.55;;;;;;;17.57;57.98;101444.53;5574787;31;34182;-68
2023/10/06 10:09:28;;;;;;;6.72;3.75;;;;;;;17.70;57.98;101448.25;5588507;31;33952;-68
2023/10/06 10:12:46;;;;;;;8.57;3.90;;;;;;;17.88;56.70;101444.31;5574745;31;33324;-68
2023/10/06 10:15:58;;;;;;;10.30;3.90;;;;;;;17.90;56.26;101437.72;5574889;31;34576;-67
2023/10/06 10:19:11;;;;;;;9.63;4.05;;;;;;;18.03;55.14;101424.44;5588536;31;32817;-68
2023/10/06 10:22:16;;;;;;;7.35;3.67;;;;;;;18.09;53.67;101425.53;5588437;31;34629;-68
2023/10/06 10:25:19;;;;;;;7.05;3.15;;;;;;;18.14;54.02;101421.25;5588345;31;33772;-67
2023/10/06 10:28:27;;;;;;;5.37;3.10;;;;;;;18.29;53.46;101409.63;5562125;31;34536;-68
2023/10/06 10:31:37;;;;;;;8.10;2.95;;;;;;;18.48;53.45;101409.78;5574247;31;34489;-68
2023/10/06 10:35:07;;;;;;;6.15;3.33;;;;;;;18.43;52.89;101403.31;5588890;31;34735;-68
2023/10/06 10:38:11;;;;;;;8.20;3.50;;;;;;;18.36;53.71;101389.81;5590727;31;34021;-69
2023/10/06 10:41:17;;;;;;;6.57;3.25;;;;;;;18.52;52.71;101389.56;5591624;31;34234;-67
2023/10/06 10:44:22;;;;;;;5.70;2.97;;;;;;;18.71;52.37;101384.53;5590689;31;33593;-67
2023/10/06 10:47:31;;;;;;;7.30;3.45;;;;;;;18.92;52.84;101389.87;5576957;31;34682;-67
2023/10/06 10:50:53;;;;;;;11.12;3.78;;;;;;;19.24;52.27;101389.19;5576679;31;33865;-67
2023/10/06 10:53:56;;;;;;;7.90;3.80;;;;;;;19.48;51.08;101387.88;5590081;31;33772;-67
2023/10/06 10:57:09;;;;;;;8.93;4.00;;;;;;;19.91;49.32;101383.03;5590193;31;33832;-68
2023/10/06 11:00:13;;;;;;;6.07;2.60;;;;;;;23.29;42.48;101378.25;5590052;31;34738;-68
2023/10/06 11:03:19;;;;;;;7.45;2.62;;;;;;;25.89;36.48;101385.03;5590466;31;33821;-68
2023/10/06 11:06:23;;;;;;;5.07;2.60;;;;;;;28.69;32.03;101392.94;5590269;31;34654;-67
2023/10/06 11:09:30;;;;;;;5.65;2.17;;;;;;;32.09;27.33;101392.63;5589686;31;34672;-70
2023/10/06 11:12:35;;;;;;;4.72;2.30;;;;;;;33.50;24.98;101397.78;5590277;31;33761;-68
2023/10/06 11:15:38;;;;;;;4.87;2.50;;;;;;;30.81;26.67;101384.44;5576434;31;33876;-69
2023/10/06 11:18:43;;;;;;;6.05;2.37;;;;;;;32.68;25.50;101378.66;5590878;31;34346;-68
2023/10/06 11:21:49;;;;;;;6.43;2.17;;;;;;;34.11;24.05;101389.44;5590358;31;33888;-68
2023/10/06 11:24:51;;;;;;;6.12;2.10;;;;;;;35.93;22.00;101383.03;5590165;31;34098;-67
2023/10/06 11:28:02;;;;;;;3.08;1.62;;;;;;;35.37;22.02;101369.69;5590055;31;33908;-68
2023/10/06 11:31:11;;;;;;;2.65;1.45;;;;;;;30.82;26.50;101366.91;5590324;31;34790;-70
2023/10/06 11:34:15;;;;;;;3.78;1.40;;;;;;;34.38;23.49;101374.94;5590192;31;34540;-69
2023/10/06 11:37:19;;;;;;;2.90;1.83;;;;;;;33.52;24.38;101384.53;5589881;31;35284;-69
2023/10/06 11:40:25;;;;;;;3.08;1.80;;;;;;;31.35;26.33;101370.84;5576375;31;33973;-69
2023/10/06 11:43:30;;;;;;;3.53;1.80;;;;;;;31.41;26.82;101369.72;5589522;31;34580;-68
2023/10/06 11:46:51;;;;;;;4.65;2.25;;;;;;;32.51;25.15;101366.44;5588868;31;31966;-67
2023/10/06 11:49:55;;;;;;;5.60;1.90;;;;;;;32.22;25.10;101364.53;5590069;31;33797;-68
2023/10/06 11:52:59;;;;;;;2.53;1.48;;;;;;;30.00;27.86;101363.44;5589908;31;33771;-68
2023/10/06 11:56:10;;;;;;;3.62;1.67;;;;;;;28.95;29.02;101360.06;5576128;31;33862;-68
2023/10/06 11:59:24;;;;;;;7.50;1.90;;;;;;;29.70;28.84;101345.03;5575563;31;33800;-68
2023/10/06 12:02:27;;;;;;;4.50;1.77;;;;;;;30.80;27.54;101344.44;5589666;31;33895;-68
2023/10/06 12:05:31;;;;;;;2.42;1.60;;;;;;;29.52;29.03;101336.53;5589631;31;34522;-68
2023/10/06 12:08:52;;;;;;;3.05;1.87;;;;;;;34.51;24.23;101321.00;5589511;31;33827;-69
2023/10/06 12:11:59;;;;;;;4.93;1.80;;;;;;;35.76;21.76;101313.88;5577435;31;33948;-69
2023/10/06 12:15:02;;;;;;;3.25;1.85;;;;;;;33.44;23.70;101310.91;5575925;31;34906;-68
2023/10/06 12:18:07;;;;;;;18.85;2.00;;;;;;;33.52;24.85;101308.31;5589769;31;33773;-68
2023/10/06 12:21:17;;;;;;;4.10;1.87;;;;;;;36.08;21.50;101297.03;5589622;31;33905;-68
2023/10/06 12:24:22;;;;;;;3.28;1.75;;;;;;;36.70;20.70;101299.78;5575592;31;34326;-69
2023/10/06 12:27:27;;;;;;;4.40;1.80;;;;;;;34.61;23.79;101290.47;5589654;31;33873;-70
2023/10/06 12:30:30;;;;;;;3.55;1.98;;;;;;;34.63;23.07;101282.69;5590019;31;34643;-70
2023/10/06 12:33:35;;;;;;;2.87;1.80;;;;;;;29.61;27.99;101280.22;5589540;31;34539;-69
2023/10/06 12:36:39;;;;;;;5.35;1.80;;;;;;;26.91;32.29;101270.44;5589689;31;33993;-69
2023/10/06 12:39:45;;;;;;;4.35;1.85;;;;;;;25.88;33.97;101266.47;5575642;31;34121;-69
2023/10/06 12:42:48;;;;;;;4.53;1.58;;;;;;;25.38;34.60;101260.94;5589283;31;34748;-68
2023/10/06 12:45:51;;;;;;;7.47;2.72;;;;;;;24.37;36.49;101261.56;5589519;31;33885;-69
2023/10/06 12:48:54;;;;;;;3.30;1.70;;;;;;;23.15;38.20;101251.41;5589409;31;33844;-68
2023/10/06 12:51:58;;;;;;;7.05;1.90;;;;;;;22.35;40.26;101256.09;5589476;31;34850;-68
2023/10/06 12:55:05;;;;;;;3.78;2.08;;;;;;;22.79;39.94;101255.00;5576058;31;33802;-68
2023/10/06 12:58:14;;;;;;;4.03;1.87;;;;;;;22.70;40.54;101250.94;5589005;31;34891;-67
2023/10/06 13:01:17;;;;;;;4.57;1.90;;;;;;;22.35;40.58;101258.81;5575925;31;34599;-69
2023/10/06 13:04:23;;;;;;;3.80;2.00;;;;;;;22.34;40.41;101249.03;5589351;31;34026;-66
2023/10/06 13:07:31;;;;;;;2.67;1.52;;;;;;;21.97;41.92;101254.37;5588871;31;33845;-67
2023/10/06 13:10:34;;;;;;;3.03;1.77;;;;;;;21.71;42.95;101254.56;5589043;31;34916;-66
2023/10/06 13:13:36;;;;;;;3.50;1.67;;;;;;;21.44;42.71;101253.09;5589075;31;34089;-67
2023/10/06 13:16:39;;;;;;;6.75;2.03;;;;;;;21.62;42.58;101247.78;5588985;31;33832;-67
2023/10/06 13:19:42;;;;;;;2.80;1.48;;;;;;;22.07;41.69;101251.19;5589127;31;33910;-67
2023/10/06 13:22:49;;;;;;;27.80;2.53;;;;;;;21.57;42.99;101253.84;5588795;31;34051;-67
2023/10/06 13:25:53;;;;;;;3.80;1.50;;;;;;;21.47;44.01;101260.75;5575221;31;34168;-67
2023/10/06 13:28:56;;;;;;;3.95;1.67;;;;;;;21.11;44.53;101267.56;5575481;31;33830;-68
2023/10/06 13:31:59;;;;;;;3.35;1.80;;;;;;;21.14;45.51;101263.66;5588340;31;33443;-67
2023/10/06 13:35:11;;;;;;;7.20;1.87;;;;;;;20.88;45.81;101274.53;5588947;31;34066;-67
2023/10/06 13:38:16;;;;;;;4.78;1.77;;;;;;;21.07;46.74;101265.50;5588733;31;34058;-67
2023/10/06 13:41:19;;;;;;;6.62;1.90;;;;;;;21.35;45.44;101262.50;5574962;31;33719;-68
2023/10/06 13:44:22;;;;;;;6.78;1.67;;;;;;;20.98;46.75;101251.44;5588806;31;34977;-67
2023/10/06 13:47:25;;;;;;;4.85;2.10;;;;;;;21.06;47.05;101242.28;5574931;31;33794;-68
2023/10/06 13:50:30;;;;;;;9.75;1.62;;;;;;;21.01;46.57;101234.03;5588220;31;34158;-68
2023/10/06 13:53:33;;;;;;;9.45;1.85;;;;;;;20.95;46.51;101235.72;5574807;31;33611;-67
2023/10/06 13:56:36;;;;;;;5.30;1.60;;;;;;;21.09;47.04;101234.59;5589015;31;33823;-67
2023/10/06 13:59:42;;;;;;;3.08;1.75;;;;;;;21.03;47.01;101226.53;5589067;31;34832;-67
2023/10/06 14:02:49;;;;;;;15.77;2.50;;;;;;;20.89;48.08;101228.47;5588116;31;33917;-67
2023/10/06 14:05:57;;;;;;;6.97;1.90;;;;;;;20.77;49.33;101222.91;5575150;31;33880;-66
2023/10/06 14:09:05;;;;;;;8.80;2.08;;;;;;;20.53;50.15;101226.31;5587346;31;33983;-67
2023/10/06 14:12:13;;;;;;;5.70;2.10;;;;;;;20.43;50.43;101223.22;5588126;31;33826;-66
2023/10/06 14:15:22;;;;;;;6.25;1.70;;;;;;;20.23;49.68;101225.12;5587836;31;34913;-67